This is the latest recevied weather packets stored in our database for station/object WMKP. If no packets are shown the sender has not sent any weather packets the latest 10 day(s).
| Time | Temp. | Humidity | Pressure | Rain* | Wind** | Luminosity | Snow |
|---|---|---|---|---|---|---|---|
| 1777516794 | 30° C | 70% | 1010 hPa | - | - | - | - |
| 1777515012 | 30° C | 70% | 1010 hPa | - | - | - | - |
| 1777513194 | 30° C | 70% | 1010 hPa | - | - | - | - |
| 1777511412 | 28.89° C | 74% | 1009 hPa | - | - | - | - |
| 1777509594 | 27.78° C | 74% | 1009 hPa | - | - | - | - |
| 1777502394 | 25.56° C | 83% | 1008 hPa | - | - | - | - |
| 1777498794 | 25.56° C | 83% | 1007 hPa | - | - | - | - |
| 1777498186 | 25.56° C | 83% | 1007 hPa | - | - | - | - |
| 1777493425 | 26.67° C | 83% | 1008 hPa | - | - | - | - |
| 1777479016 | 27.78° C | 78% | 1010 hPa | - | - | - | - |
| 1777468211 | 28.89° C | 79% | 1008 hPa | - | - | - | - |
| 1777462793 | 30° C | 74% | 1007 hPa | - | - | - | - |
| 1777461011 | 30° C | 70% | 1006 hPa | - | - | - | - |
| 1777459193 | 30° C | 70% | 1006 hPa | - | - | - | - |
| 1777457420 | 30.56° C | 66% | 1005 hPa | - | - | - | - |
| 1777455601 | 30.56° C | 70% | 1006 hPa | - | - | - | - |
| 1777453810 | 30.56° C | 70% | 1006 hPa | - | - | - | - |
| 1777451995 | 31.67° C | 62% | 1006 hPa | - | - | - | - |
| 1777450215 | 31.67° C | 62% | 1006 hPa | - | - | - | - |
| 1777448396 | 30.56° C | 70% | 1007 hPa | - | - | - | - |
| 1777446610 | 31.67° C | 66% | 1007 hPa | - | - | - | - |
| 1777444792 | 30.56° C | 74% | 1008 hPa | - | - | - | - |
| 1777443020 | 30.56° C | 70% | 1008 hPa | - | - | - | - |
| 1777441198 | 30.56° C | 70% | 1009 hPa | - | - | - | - |
| 1777439410 | 30.56° C | 74% | 1009 hPa | - | - | - | - |
* Rain since midnight (hover to see other rain measurements)
** Current wind speed in m/s (hover to see current wind gust speed)